Aérodrome :







RETROUVEZ-NOUS SUR...

 
LOGIN :

S'inscrire | Disclaimer

   EN    FR    IT 

 









Légende :    VFR   VFR Marginal   IFR   IFR Intensif   IFR Très Intensif
Visi : 
Plafond : 
>= 8 km
>= 3000ft
5 à 8 km
1000 à 3000 ft
1500m à 5 km
500 à 1000 ft
800 à 1500m
200 à 500 ft
< 800m
< 200 ft
Symboles :   Orages  Brouillard  Fortes neiges  Fortes précipitations  Vent > 20 kt






- Altitude de l'aérodrome : 550 ft
- Code IATA : YOY


CYOY - C J.H.L.(Joe) Lecomte) Heliport

DERNIER METAR :
  • 241800Z 24014G21KT 15SM FEW050 FEW240 06/M04 A2979 RMK SC1CI1 DA-215FT SLP099

METARs EXPIRÉS :
  • 241700Z 23016G22KT 15SM FEW050 FEW240 06/M04 A2980 RMK SC1CI2 DA-254FT SLP103
  • 241600Z 25013G19KT 15SM FEW050 FEW240 06/M05 A2982 RMK SC1CI2 DA-309FT SLP107

TAF TAF CYOY
Valide du 24 à 18h jusqu'au 25 à 06h UTC


241730Z 2418/2506 23012G22KT P6SM FEW050 SCT240
FM242000 24010KT P6SM SCT020
TEMPO 2420/2502 BKN020
BECMG 2422/2424 VRB03KT
FM250200 VRB03KT P6SM SCT030 RMK FCST BASED ON AUTO OBS 250100-250600Z. NXT FCST BY 250000Z



MET'MAP, la Météo Aéronautique d'un coup d'oeil ! - Copyright ORBIFLY Décembre 2007 - Disclaimer

ORBIFLY MET'MAP TEAM :

Programmation & Développement : Alexandra Zaïnal
Sur une idée originale de : Baudouin d'Aumeries
Assistance à la programmation : Marc-Olivier Méhu
Soutien technique & logistique : Manuel Goepfert

Contact : metmap@orbifly.com




SOURCES & CREDITS :

   NOAA